createdAt,value
2023-01-04T00:01:33.583Z,73.62
2023-01-04T00:04:01.568Z,79.03
2023-01-04T00:06:29.393Z,95.45
2023-01-04T00:08:57.241Z,68.50
2023-01-04T00:11:24.902Z,48.28
2023-01-04T00:13:56.346Z,41.48
2023-01-04T00:16:26.994Z,59.50
2023-01-04T00:18:55.601Z,46.05
2023-01-04T00:21:27.397Z,38.35
2023-01-04T00:23:58.528Z,34.53
2023-01-04T00:26:33.066Z,34.98
2023-01-04T00:29:05.297Z,34.37
2023-01-04T00:31:34.337Z,40.55
2023-01-04T00:34:04.732Z,38.38
2023-01-04T00:36:33.475Z,44.88
2023-01-04T00:39:09.343Z,51.33
2023-01-04T00:42:02.309Z,40.83
2023-01-04T00:44:16.290Z,34.33
2023-01-04T00:46:44.657Z,33.83
2023-01-04T00:49:12.641Z,36.53
2023-01-04T00:51:42.250Z,38.15
2023-01-04T00:54:15.780Z,39.18
2023-01-04T00:56:44.170Z,40.90
2023-01-04T00:59:17.804Z,36.53
2023-01-04T01:01:46.366Z,38.98
2023-01-04T01:04:17.794Z,39.25
2023-01-04T01:06:46.081Z,37.65
2023-01-04T01:09:14.747Z,45.25
2023-01-04T01:11:42.959Z,41.18
2023-01-04T01:14:18.249Z,44.55
2023-01-04T01:17:02.454Z,38.63
2023-01-04T01:19:16.662Z,38.60
2023-01-04T01:21:44.726Z,38.88
2023-01-04T01:24:16.678Z,37.40
2023-01-04T01:26:44.494Z,37.30
2023-01-04T01:29:12.258Z,36.60
2023-01-04T01:31:41.165Z,36.73
2023-01-04T01:34:12.122Z,36.75
2023-01-04T01:36:39.862Z,37.03
2023-01-04T01:39:07.922Z,37.80
2023-01-04T01:41:36.024Z,36.75
2023-01-04T01:44:44.699Z,37.65
2023-01-04T01:47:20.107Z,37.95
2023-01-04T01:49:51.696Z,37.58
2023-01-04T01:52:24.639Z,37.03
2023-01-04T01:54:59.735Z,37.67
2023-01-04T01:57:31.941Z,38.65
2023-01-04T02:00:05.237Z,37.78
2023-01-04T02:02:35.540Z,38.20
2023-01-04T02:05:03.767Z,39.00
2023-01-04T02:07:31.923Z,37.93
2023-01-04T02:10:00.201Z,39.70
2023-01-04T02:12:28.164Z,41.25
2023-01-04T02:14:56.229Z,39.18
2023-01-04T02:17:47.056Z,39.58
2023-01-04T02:20:38.185Z,39.90
2023-01-04T02:23:28.880Z,38.02
2023-01-04T02:26:05.172Z,38.02
2023-01-04T02:28:43.500Z,40.28
2023-01-04T02:31:40.368Z,43.30
2023-01-04T02:34:45.804Z,38.45
2023-01-04T02:37:33.303Z,38.17
2023-01-04T02:40:22.832Z,44.83
2023-01-04T02:43:20.190Z,40.52
2023-01-04T02:45:56.116Z,38.63
2023-01-04T02:48:42.468Z,37.73
2023-01-04T02:51:35.389Z,39.65
2023-01-04T02:54:08.010Z,36.17
2023-01-04T02:57:32.381Z,39.13
2023-01-04T03:00:44.970Z,38.10
2023-01-04T03:03:39.519Z,38.28
2023-01-04T03:06:21.587Z,38.55
2023-01-04T03:09:03.533Z,39.35
2023-01-04T03:11:56.642Z,39.65
2023-01-04T03:14:31.715Z,39.92
2023-01-04T03:17:01.603Z,44.45
2023-01-04T03:19:49.849Z,43.42
2023-01-04T03:22:41.195Z,43.50
2023-01-04T03:25:27.704Z,45.20
2023-01-04T03:28:15.582Z,44.90
2023-01-04T03:31:19.116Z,42.23
2023-01-04T03:34:05.381Z,42.95
2023-01-04T03:36:44.900Z,39.45
2023-01-04T03:39:48.532Z,36.23
2023-01-04T03:42:56.465Z,38.83
2023-01-04T03:45:47.775Z,38.45
2023-01-04T03:48:31.005Z,38.92
2023-01-04T03:51:15.416Z,40.33
2023-01-04T03:53:57.341Z,38.80
2023-01-04T03:56:28.164Z,39.50
2023-01-04T03:58:56.041Z,39.73
2023-01-04T04:01:26.201Z,40.70
2023-01-04T04:04:13.358Z,43.60
2023-01-04T04:06:59.851Z,39.23
2023-01-04T04:09:27.684Z,43.17
2023-01-04T04:11:55.673Z,40.60
2023-01-04T04:14:23.728Z,40.15
2023-01-04T04:16:51.724Z,72.65
2023-01-04T04:19:19.800Z,92.17
2023-01-04T04:21:47.554Z,52.58
2023-01-04T04:24:22.639Z,48.13
2023-01-04T04:26:51.762Z,45.30
2023-01-04T04:29:19.689Z,44.38
2023-01-04T04:31:47.654Z,44.48
2023-01-04T04:34:15.487Z,46.20
2023-01-04T04:36:43.326Z,45.65
2023-01-04T04:39:11.994Z,46.05
2023-01-04T04:41:43.255Z,46.70
2023-01-04T04:44:15.977Z,44.35
2023-01-04T04:46:44.802Z,41.18
2023-01-04T04:49:16.053Z,37.67
2023-01-04T04:51:45.170Z,36.83
2023-01-04T04:54:17.017Z,36.17
2023-01-04T04:56:44.831Z,33.33
2023-01-04T04:59:12.618Z,34.63
2023-01-04T05:01:40.715Z,35.00
2023-01-04T05:04:08.815Z,35.08
2023-01-04T05:06:36.458Z,35.63
2023-01-04T05:09:04.249Z,35.00
2023-01-04T05:11:50.330Z,37.58
2023-01-04T05:14:18.456Z,35.50
2023-01-04T05:16:46.374Z,40.92
2023-01-04T05:19:14.083Z,93.95
2023-01-04T05:21:41.895Z,141.97
2023-01-04T05:24:12.149Z,94.87
2023-01-04T05:26:40.154Z,64.03
2023-01-04T05:29:09.636Z,45.65
2023-01-04T05:31:38.102Z,41.10
2023-01-04T05:34:05.866Z,37.58
2023-01-04T05:36:33.577Z,35.92
2023-01-04T05:39:01.460Z,35.60
2023-01-04T05:41:47.391Z,34.95
2023-01-04T05:44:15.377Z,34.60
2023-01-04T05:46:43.123Z,34.65
2023-01-04T05:49:11.133Z,35.73
2023-01-04T05:51:38.939Z,33.58
2023-01-04T05:54:06.483Z,33.55
2023-01-04T05:56:34.229Z,35.95
2023-01-04T05:59:02.093Z,54.98
2023-01-04T06:01:29.957Z,50.75
2023-01-04T06:03:57.900Z,63.70
2023-01-04T06:06:25.712Z,75.32
2023-01-04T06:08:53.454Z,54.67
2023-01-04T06:11:27.192Z,41.02
2023-01-04T06:13:50.952Z,33.78
2023-01-04T06:16:19.196Z,30.32
2023-01-04T06:18:47.006Z,30.88
2023-01-04T06:21:14.951Z,31.17
2023-01-04T06:23:42.486Z,31.80
2023-01-04T06:26:10.215Z,33.30
2023-01-04T06:28:41.001Z,32.65
2023-01-04T06:31:09.544Z,35.38
2023-01-04T06:33:37.647Z,32.63
2023-01-04T06:36:06.340Z,33.67
2023-01-04T06:38:34.393Z,33.42
2023-01-04T06:41:02.143Z,35.08
2023-01-04T06:43:30.061Z,33.28
2023-01-04T06:45:58.128Z,31.75
2023-01-04T06:48:25.961Z,32.53
2023-01-04T06:50:53.604Z,30.88
2023-01-04T06:53:21.570Z,31.75
2023-01-04T06:55:49.367Z,30.90
2023-01-04T06:58:17.354Z,33.58
2023-01-04T07:00:46.637Z,34.30
2023-01-04T07:03:16.196Z,32.20
2023-01-04T07:05:44.597Z,31.70
2023-01-04T07:08:14.814Z,32.67
2023-01-04T07:10:42.665Z,34.63
2023-01-04T07:13:10.900Z,35.43
2023-01-04T07:15:41.022Z,37.00
2023-01-04T07:18:10.610Z,37.85
2023-01-04T07:20:39.082Z,37.65
2023-01-04T07:23:07.977Z,36.40
2023-01-04T07:25:35.952Z,37.58
2023-01-04T07:28:04.176Z,37.50
2023-01-04T07:30:32.161Z,40.60
2023-01-04T07:33:00.242Z,39.90
2023-01-04T07:35:28.602Z,42.23
2023-01-04T07:37:58.915Z,41.23
2023-01-04T07:40:27.399Z,42.58
2023-01-04T07:42:57.550Z,44.98
2023-01-04T07:45:25.769Z,45.78
2023-01-04T07:47:53.354Z,53.90
2023-01-04T07:50:21.195Z,53.08
2023-01-04T07:52:48.823Z,46.95
2023-01-04T07:55:16.818Z,40.92
2023-01-04T07:57:44.724Z,42.08
2023-01-04T08:00:13.457Z,43.78
2023-01-04T08:02:42.687Z,47.50
2023-01-04T08:05:10.925Z,47.43
2023-01-04T08:07:38.885Z,49.53
2023-01-04T08:10:08.282Z,60.50
2023-01-04T08:12:36.159Z,52.88
2023-01-04T08:15:04.722Z,49.23
2023-01-04T08:17:33.607Z,53.05
2023-01-04T08:20:03.667Z,61.80
2023-01-04T08:22:35.061Z,54.85
2023-01-04T08:25:02.957Z,56.95
2023-01-04T08:27:31.025Z,51.48
2023-01-04T08:29:59.201Z,52.98
2023-01-04T08:32:27.555Z,52.27
2023-01-04T08:34:57.343Z,49.15
2023-01-04T08:37:25.182Z,51.95
2023-01-04T08:39:52.956Z,50.95
2023-01-04T08:42:28.638Z,51.10
2023-01-04T08:44:52.969Z,56.77
2023-01-04T08:47:19.998Z,75.83
2023-01-04T08:49:48.105Z,61.60
2023-01-04T08:52:15.938Z,60.58
2023-01-04T08:54:43.957Z,59.73
2023-01-04T08:57:11.669Z,59.98
2023-01-04T08:59:41.512Z,59.65
2023-01-04T09:02:27.496Z,57.83
2023-01-04T09:04:58.233Z,60.03
2023-01-04T09:07:31.592Z,63.48
2023-01-04T09:10:03.082Z,61.15
2023-01-04T09:12:31.326Z,56.50
2023-01-04T09:15:09.578Z,57.20
2023-01-04T09:17:58.006Z,57.80
2023-01-04T09:20:11.857Z,100.12
2023-01-04T09:22:50.117Z,75.52
2023-01-04T09:25:26.330Z,65.60
2023-01-04T09:27:55.078Z,61.33
2023-01-04T09:30:23.238Z,66.87
2023-01-04T09:32:51.574Z,67.85
2023-01-04T09:35:19.763Z,71.72
2023-01-04T09:37:54.951Z,74.65
2023-01-04T09:43:20.623Z,73.50
2023-01-04T09:45:30.398Z,88.87
2023-01-04T09:48:11.348Z,102.42
2023-01-04T09:50:50.289Z,103.65
2023-01-04T09:53:30.091Z,106.97
2023-01-04T09:56:12.466Z,99.22
2023-01-04T09:58:48.904Z,89.35
2023-01-04T10:01:52.052Z,74.62
2023-01-04T10:04:47.805Z,50.35
2023-01-04T10:07:33.884Z,43.68
2023-01-04T10:10:06.359Z,42.20
2023-01-04T10:13:03.923Z,41.20
2023-01-04T10:19:23.922Z,39.00
2023-01-04T10:22:00.075Z,40.75
2023-01-04T12:46:07.046Z,11.03
2023-01-04T12:52:42.584Z,11.75
2023-01-04T13:17:28.866Z,18.10
2023-01-04T13:30:29.490Z,19.32
2023-01-04T13:36:42.246Z,22.73
2023-01-04T14:12:11.063Z,34.20
2023-01-04T14:15:08.434Z,38.67
2023-01-04T14:17:56.657Z,51.18
2023-01-04T14:20:38.409Z,37.53
2023-01-04T14:23:17.622Z,37.85
2023-01-04T14:25:52.826Z,38.50
2023-01-04T14:28:28.390Z,35.05
2023-01-04T14:31:06.333Z,45.55
2023-01-04T14:33:39.711Z,68.57
2023-01-04T14:36:26.169Z,84.90
2023-01-04T14:39:09.565Z,53.40
2023-01-04T14:41:45.488Z,44.35
2023-01-04T14:44:17.144Z,36.73
2023-01-04T14:46:48.524Z,39.88
2023-01-04T14:49:16.740Z,38.33
2023-01-04T14:51:54.718Z,33.67
2023-01-04T14:54:25.589Z,33.23
2023-01-04T14:56:56.335Z,33.40
2023-01-04T14:59:24.745Z,33.18
2023-01-04T15:01:57.164Z,33.33
2023-01-04T15:04:26.540Z,35.17
2023-01-04T15:06:58.621Z,32.78
2023-01-04T15:09:28.354Z,40.12
2023-01-04T15:11:56.588Z,57.25
2023-01-04T15:14:24.734Z,60.25
2023-01-04T15:16:52.695Z,52.13
2023-01-04T15:19:20.455Z,47.70
2023-01-04T15:21:52.411Z,42.88
2023-01-04T15:24:20.157Z,46.13
2023-01-04T15:26:48.653Z,54.27
2023-01-04T15:29:16.596Z,63.50
2023-01-04T15:31:44.777Z,64.17
2023-01-04T15:34:14.179Z,63.75
2023-01-04T15:36:44.255Z,63.02
2023-01-04T15:39:14.218Z,55.33
2023-01-04T15:42:00.623Z,51.88
2023-01-04T15:44:28.416Z,46.13
2023-01-04T15:46:58.145Z,45.98
2023-01-04T15:49:26.106Z,42.95
2023-01-04T15:51:54.017Z,44.40
2023-01-04T15:54:27.483Z,44.35
2023-01-04T15:56:55.930Z,41.37
2023-01-04T15:59:23.933Z,39.85
2023-01-04T16:01:51.971Z,38.63
2023-01-04T16:04:19.852Z,40.25
2023-01-04T16:06:48.003Z,32.75
2023-01-04T16:09:16.158Z,43.98
2023-01-04T16:11:49.156Z,44.80
2023-01-04T16:14:17.216Z,37.33
2023-01-04T16:16:45.228Z,40.17
2023-01-04T16:19:13.007Z,37.58
2023-01-04T16:21:41.989Z,38.42
2023-01-04T16:24:29.561Z,38.00
2023-01-04T16:26:42.070Z,38.35
2023-01-04T16:29:11.804Z,43.60
2023-01-04T16:31:40.000Z,215.35
2023-01-04T16:34:11.275Z,127.55
2023-01-04T16:36:39.337Z,51.95
2023-01-04T16:39:08.165Z,45.25
2023-01-04T16:41:40.209Z,48.63
2023-01-04T16:44:09.735Z,48.63
2023-01-04T16:46:39.412Z,48.05
2023-01-04T16:49:11.252Z,48.17
2023-01-04T16:51:45.045Z,53.42
2023-01-04T16:54:16.583Z,47.67
2023-01-04T16:56:50.972Z,47.00
2023-01-04T16:59:19.648Z,47.65
2023-01-04T17:01:57.713Z,44.55
2023-01-04T17:04:21.286Z,47.15
2023-01-04T17:06:51.670Z,44.65
2023-01-04T17:09:21.763Z,42.08
2023-01-04T17:14:32.900Z,49.40
2023-01-04T17:17:02.372Z,45.25
2023-01-04T17:19:30.892Z,53.92
2023-01-04T17:21:59.406Z,57.83
2023-01-04T17:24:27.518Z,56.77
2023-01-04T17:26:55.591Z,62.58
2023-01-04T17:29:23.664Z,69.42
2023-01-04T17:31:53.045Z,62.08
2023-01-04T17:34:23.221Z,106.12
2023-01-04T17:36:51.336Z,80.72
2023-01-04T17:39:20.460Z,69.87
2023-01-04T17:41:48.358Z,78.28
2023-01-04T17:44:16.323Z,92.42
2023-01-04T17:46:47.934Z,96.20
2023-01-04T17:49:27.543Z,87.02
2023-01-04T17:51:45.577Z,97.82
2023-01-04T17:54:13.999Z,102.60
2023-01-04T17:56:41.944Z,151.55
2023-01-04T17:59:12.508Z,134.90
2023-01-04T18:01:44.074Z,132.97
2023-01-04T18:04:12.158Z,128.75
2023-01-04T18:06:40.092Z,162.27
2023-01-04T18:09:08.679Z,130.93
2023-01-04T18:11:39.176Z,123.87
2023-01-04T18:14:10.251Z,121.40
2023-01-04T18:16:40.261Z,114.88
2023-01-04T18:19:08.501Z,139.62
2023-01-04T18:21:36.404Z,130.37
2023-01-04T18:27:10.736Z,128.40
2023-01-04T18:29:08.066Z,128.65
2023-01-04T18:31:35.789Z,118.47
2023-01-04T18:34:05.609Z,117.75
2023-01-04T18:36:42.468Z,117.95
2023-01-04T18:39:06.605Z,119.13
2023-01-04T18:41:35.623Z,125.38
2023-01-04T18:44:31.341Z,123.07
2023-01-04T18:46:32.981Z,121.07
2023-01-04T18:49:02.697Z,123.65
2023-01-04T18:51:30.277Z,122.72
2023-01-04T18:53:58.071Z,117.95
2023-01-04T18:56:28.757Z,118.05
2023-01-04T18:58:57.552Z,131.63
2023-01-04T19:01:27.893Z,130.85
2023-01-04T19:03:56.698Z,167.82
2023-01-04T19:06:24.753Z,180.18
2023-01-04T19:09:01.462Z,170.32
2023-01-04T19:11:26.352Z,152.30
2023-01-04T19:13:54.724Z,150.27
2023-01-04T19:16:23.443Z,144.62
2023-01-04T19:18:51.110Z,132.25
2023-01-04T19:21:19.146Z,128.47
2023-01-04T19:23:47.471Z,117.85
2023-01-04T19:26:15.128Z,118.22
2023-01-04T19:28:43.017Z,118.15
2023-01-04T19:31:12.462Z,118.75
2023-01-04T19:33:41.041Z,119.55
2023-01-04T19:36:11.265Z,116.67
2023-01-04T19:38:41.374Z,112.77
2023-01-04T19:41:14.553Z,109.83
2023-01-04T19:43:42.598Z,119.45
2023-01-04T19:46:14.121Z,123.00
2023-01-04T19:48:44.884Z,109.15
2023-01-04T19:51:18.480Z,112.42
2023-01-04T19:53:46.453Z,98.55
2023-01-04T19:56:16.313Z,75.55
2023-01-04T19:58:44.452Z,68.85
2023-01-04T20:01:16.756Z,70.03
2023-01-04T20:03:44.931Z,71.72
2023-01-04T20:06:14.707Z,73.50
2023-01-04T20:08:45.197Z,71.97
2023-01-04T20:11:13.424Z,67.30
2023-01-04T20:13:41.191Z,67.30
2023-01-04T20:16:10.977Z,67.42
2023-01-04T20:18:39.073Z,67.53
2023-01-04T20:21:12.548Z,64.67
2023-01-04T20:23:43.204Z,65.32
2023-01-04T20:26:15.415Z,66.17
2023-01-04T20:28:45.368Z,66.12
2023-01-04T20:31:16.800Z,68.02
2023-01-04T20:33:46.537Z,66.07
2023-01-04T20:36:19.060Z,69.15
2023-01-04T20:38:48.035Z,78.07
2023-01-04T20:41:19.974Z,70.08
2023-01-04T20:43:48.590Z,73.25
2023-01-04T20:46:30.613Z,72.27
2023-01-04T20:49:00.713Z,69.37
2023-01-04T20:51:30.467Z,78.28
2023-01-04T20:53:59.407Z,78.62
2023-01-04T20:56:30.915Z,89.72
2023-01-04T20:58:58.850Z,78.28
2023-01-04T21:01:27.014Z,72.50
2023-01-04T21:03:54.961Z,79.07
2023-01-04T21:06:23.386Z,82.97
2023-01-04T21:08:54.235Z,79.42
2023-01-04T21:11:22.247Z,89.70
2023-01-04T21:13:51.491Z,79.62
2023-01-04T21:16:19.200Z,74.75
2023-01-04T21:18:47.447Z,68.15
2023-01-04T21:21:17.593Z,58.17
2023-01-04T21:23:49.502Z,61.25
2023-01-04T21:26:20.511Z,57.88
2023-01-04T21:28:48.167Z,62.03
2023-01-04T21:31:19.692Z,64.62
2023-01-04T21:33:48.093Z,65.92
2023-01-04T21:36:27.618Z,72.45
2023-01-04T21:38:58.303Z,81.22
2023-01-04T21:41:26.664Z,72.27
2023-01-04T21:43:57.288Z,80.85
2023-01-04T21:46:26.573Z,69.32
2023-01-04T21:48:57.707Z,64.27
2023-01-04T21:51:29.471Z,66.60
2023-01-04T21:53:58.251Z,63.92
2023-01-04T21:56:26.206Z,61.18
2023-01-04T21:58:53.979Z,61.42
2023-01-04T22:01:31.002Z,71.62
2023-01-04T22:03:56.388Z,82.75
2023-01-04T22:06:25.448Z,73.25
2023-01-04T22:08:55.090Z,64.15
2023-01-04T22:11:22.928Z,61.77
2023-01-04T22:13:51.061Z,59.73
2023-01-04T22:16:18.813Z,61.42
2023-01-04T22:18:50.883Z,62.35
2023-01-04T22:21:22.854Z,63.75
2023-01-04T22:23:51.839Z,64.47
2023-01-04T22:26:19.598Z,60.78
2023-01-04T22:28:47.377Z,51.40
2023-01-04T22:31:15.616Z,50.28
2023-01-04T22:33:43.480Z,61.83
2023-01-04T22:36:21.729Z,75.50
2023-01-04T22:38:45.896Z,83.15
2023-01-04T22:41:16.404Z,57.62
2023-01-04T22:43:44.910Z,56.92
2023-01-04T22:46:17.157Z,56.48
2023-01-04T22:48:45.865Z,55.12
2023-01-04T22:51:16.842Z,50.75
2023-01-04T22:53:45.300Z,53.02
2023-01-04T22:56:19.493Z,51.63
2023-01-04T22:58:52.094Z,49.38
2023-01-04T23:01:15.710Z,42.65
2023-01-04T23:03:43.634Z,45.35
2023-01-04T23:06:13.026Z,41.65
2023-01-04T23:08:41.261Z,44.80
2023-01-04T23:11:16.505Z,45.90
2023-01-04T23:16:15.657Z,45.50
2023-01-04T23:18:43.634Z,41.80
2023-01-04T23:21:12.624Z,44.80
2023-01-04T23:23:40.469Z,48.33
2023-01-04T23:26:21.193Z,37.20
2023-01-04T23:28:49.870Z,28.25
2023-01-04T23:31:22.042Z,25.20
2023-01-04T23:33:55.555Z,25.52
2023-01-04T23:36:28.053Z,25.52
2023-01-04T23:38:58.831Z,21.12
2023-01-04T23:41:45.857Z,20.37
2023-01-04T23:47:01.237Z,19.87
2023-01-04T23:49:31.693Z,22.75
2023-01-04T23:52:00.145Z,40.33
2023-01-04T23:54:29.064Z,36.48
2023-01-04T23:56:57.376Z,28.02
2023-01-04T23:59:25.422Z,22.10
